Kerrville, TX

12:35 AM CST on February 14, 2016 (GMT -0600)
Kerrville Municipal-Schreiner | | Change Station
CLOSE
Current Station
Airport
Location: Kerrville,
Elevation: 1617 ft
Nearby Weather Stations

Elev 1617 ft 29.98 °N, 99.09 °W | Updated 20 minutes ago

Clear
Clear
54 °F
Feels Like 54 °F
N
12
Wind Variable Wind from SSE

Today
High -- | Low -- °F
--% Chance of Precip.
Yesterday
High -- | Low -- °F
Precip. -- in
Pressure 30.12 in
Visibility 10.0 miles
Clouds Clear
Dew Point 50 °F
Humidity 88%
Rainfall 0.00 in
Snow Depth Not available.
7:17 AM 6:24 PM
Waxing Crescent, 38% visible
METAR KERV 140615Z AUTO 15010KT 10SM CLR 12/10 A3012 RMK AO2 T01220102
Pressure 30.12 in
Visibility 10.0 miles
Clouds Clear
Dew Point 50 °F
Humidity 88%
Rainfall 0.00 in
Snow Depth Not available.
7:17 AM 6:24 PM
Waxing Crescent, 38% visible
METAR KERV 140615Z AUTO 15010KT 10SM CLR 12/10 A3012 RMK AO2 T01220102

10-Day Weather Forecast

Almanac

Astronomy

Feb. 14, 2016 Rise Set
Actual Time
Civil Twilight
Nautical Twilight
Astronomical Twilight
Moon
Length of Visible Light
Length of Day
Tomorrow will be .
, % of the Moon is Illuminated

Today's Extremes

State Highs State Lows

Community

WunderPhotos

Upload Photos

1,892,757 photos uploaded!

WunderBlog® & News

Nearby

Air Quality

  Air Quality AQ Index Pollutant
Not available.

Snow Depth

Station Depth Elevation

Earthquake Activity

City Distance Mag. Time & Date
Minimum magnitude displayed is 2.5.

Coastal Water Temperatures

Place Temperature

Stations

Nearby Weather Stations

Station Location Temp. Windchill Dew Point Humidity Wind Precip. Elev Updated Type
                   

Watches & Warnings

There are currently no watches in effect.